Time;durP1;ratioP1;P1;durP2;ratioP2;P2;SDS_P1;SDS_P2;PMS_P1;PMS_P2;Temp;Humidity;BMP_temperature;BMP_pressure;BME280_temperature;BME280_humidity;BME280_pressure;Samples;Min_cycle;Max_cycle;Signal;HPM_P1;HPM_P2
2022/09/20 00:00:05;;;;;;;3.60;1.80;;;12.30;99.90;;;;;;5041186;28;20227;-70
2022/09/20 00:02:30;;;;;;;1.90;1.60;;;12.30;99.90;;;;;;5039299;28;20224;-72
2022/09/20 00:04:56;;;;;;;2.03;1.40;;;12.30;99.90;;;;;;5036833;28;20454;-71
2022/09/20 00:07:21;;;;;;;2.23;1.80;;;12.30;99.90;;;;;;5044498;28;20219;-72
2022/09/20 00:09:47;;;;;;;1.53;1.20;;;12.20;99.90;;;;;;5037587;28;20699;-71
2022/09/20 00:12:13;;;;;;;3.37;1.80;;;12.20;99.90;;;;;;5036883;28;20216;-71
2022/09/20 00:14:38;;;;;;;2.37;1.60;;;12.20;99.90;;;;;;5034498;28;20227;-71
2022/09/20 00:17:04;;;;;;;3.60;1.87;;;12.20;99.90;;;;;;5038067;28;20216;-71
2022/09/20 00:19:30;;;;;;;4.90;2.00;;;12.20;99.90;;;;;;5039950;28;20330;-71
2022/09/20 00:21:55;;;;;;;5.13;3.30;;;12.20;99.90;;;;;;5041144;28;20714;-72
2022/09/20 00:24:21;;;;;;;4.30;2.40;;;12.20;99.90;;;;;;5033222;28;20795;-72
2022/09/20 00:26:47;;;;;;;4.73;3.07;;;12.10;99.90;;;;;;5039910;28;20307;-72
2022/09/20 00:29:12;;;;;;;3.80;2.30;;;12.10;99.90;;;;;;5025616;28;20264;-71
2022/09/20 00:31:41;;;;;;;5.53;2.53;;;12.10;99.90;;;;;;5043538;28;20219;-70
2022/09/20 00:36:53;;;;;;;2.77;2.53;;;12.20;99.90;;;;;;5036940;28;20550;-71
2022/09/20 00:39:18;;;;;;;5.83;2.63;;;12.10;99.90;;;;;;5042407;28;20531;-72
2022/09/20 00:41:44;;;;;;;3.47;2.07;;;12.10;99.90;;;;;;5038982;28;20710;-71
2022/09/20 00:44:47;;;;;;;3.53;1.97;;;12.10;99.90;;;;;;5057921;28;20227;-72
2022/09/20 00:47:39;;;;;;;2.37;2.17;;;12.00;99.90;;;;;;5042301;28;20223;-71
2022/09/20 00:50:10;;;;;;;5.90;2.10;;;12.00;99.90;;;;;;5040900;28;20823;-71
2022/09/20 00:52:36;;;;;;;1.70;1.60;;;12.00;99.90;;;;;;5035594;28;20450;-71
2022/09/20 00:55:06;;;;;;;2.83;1.93;;;12.00;99.90;;;;;;5035374;28;20467;-71
2022/09/20 00:57:34;;;;;;;2.10;1.63;;;12.00;99.90;;;;;;5042280;28;20478;-70
2022/09/20 01:00:05;;;;;;;2.03;1.80;;;11.90;99.90;;;;;;5039859;28;20993;-72
2022/09/20 01:02:32;;;;;;;4.07;1.70;;;12.00;99.90;;;;;;5034774;28;20474;-72
2022/09/20 01:04:59;;;;;;;1.93;1.63;;;11.90;99.90;;;;;;5033314;28;20991;-72
2022/09/20 01:07:25;;;;;;;3.97;2.10;;;11.90;99.90;;;;;;5038492;28;20455;-71
2022/09/20 01:09:51;;;;;;;1.87;1.60;;;11.90;99.90;;;;;;5039735;28;20435;-72
2022/09/20 01:12:20;;;;;;;4.63;1.70;;;11.90;99.90;;;;;;5051824;28;20461;-72
2022/09/20 01:14:49;;;;;;;2.50;1.97;;;11.80;99.90;;;;;;5041112;28;20454;-71
2022/09/20 01:17:18;;;;;;;2.17;1.60;;;11.80;99.90;;;;;;5039616;28;20463;-72
2022/09/20 01:20:13;;;;;;;2.97;1.67;;;11.80;99.90;;;;;;5029148;28;20451;-71
2022/09/20 01:23:16;;;;;;;1.53;1.10;;;11.80;99.90;;;;;;5035060;28;20474;-70
2022/09/20 01:25:44;;;;;;;3.13;1.93;;;11.70;99.90;;;;;;5040527;28;20450;-72
2022/09/20 01:28:10;;;;;;;1.73;1.03;;;11.70;99.90;;;;;;5050870;28;20487;-71
2022/09/20 01:30:45;;;;;;;6.40;1.73;;;11.70;99.90;;;;;;5032801;28;20489;-71
2022/09/20 01:33:22;;;;;;;8.07;1.40;;;11.70;99.90;;;;;;5036595;28;20207;-72
2022/09/20 01:35:49;;;;;;;3.33;1.30;;;11.70;99.90;;;;;;5037447;28;20443;-72
2022/09/20 01:38:33;;;;;;;2.50;1.23;;;11.70;99.90;;;;;;5033906;28;20455;-71
2022/09/20 01:41:20;;;;;;;4.73;2.10;;;11.70;99.90;;;;;;5033482;28;20454;-72
2022/09/20 01:43:52;;;;;;;2.37;1.60;;;11.60;99.90;;;;;;5054937;28;20481;-71
2022/09/20 01:46:26;;;;;;;1.50;1.40;;;11.60;99.90;;;;;;5033341;28;20998;-71
2022/09/20 01:49:03;;;;;;;4.20;1.80;;;11.60;99.90;;;;;;5025159;28;20546;-71
2022/09/20 01:51:38;;;;;;;3.57;1.87;;;11.50;99.90;;;;;;5040533;28;20904;-71
2022/09/20 01:54:13;;;;;;;3.47;1.03;;;11.50;99.90;;;;;;5035822;28;20889;-71
2022/09/20 01:57:12;;;;;;;3.90;1.40;;;11.50;99.90;;;;;;5043231;28;20460;-71
2022/09/20 02:00:22;;;;;;;3.23;1.30;;;11.50;99.90;;;;;;5044480;28;20548;-71
2022/09/20 02:03:25;;;;;;;2.03;1.83;;;11.50;99.90;;;;;;5058093;28;20482;-71
2022/09/20 02:05:53;;;;;;;1.47;1.17;;;11.50;99.90;;;;;;5025884;28;20446;-71
2022/09/20 02:08:37;;;;;;;3.10;1.27;;;11.50;99.90;;;;;;5043214;28;20462;-71
2022/09/20 02:11:12;;;;;;;1.80;1.40;;;11.50;99.90;;;;;;5033616;28;20559;-71
2022/09/20 02:13:38;;;;;;;9.67;1.60;;;11.50;99.90;;;;;;5037076;28;20458;-71
2022/09/20 02:16:41;;;;;;;2.60;1.70;;;11.50;99.90;;;;;;5038267;28;20451;-70
2022/09/20 02:19:17;;;;;;;4.13;1.37;;;11.50;99.90;;;;;;5035746;28;20216;-70
2022/09/20 02:22:20;;;;;;;3.83;1.87;;;11.50;99.90;;;;;;5031536;28;20823;-71
2022/09/20 02:24:57;;;;;;;1.90;1.33;;;11.50;99.90;;;;;;5041396;28;21544;-71
2022/09/20 02:27:49;;;;;;;3.07;1.57;;;11.50;99.90;;;;;;5039202;28;20459;-72
2022/09/20 02:30:27;;;;;;;2.00;1.33;;;11.50;99.90;;;;;;5038377;28;20458;-72
2022/09/20 02:32:55;;;;;;;1.33;1.20;;;11.50;99.90;;;;;;5032246;28;20510;-71
2022/09/20 02:35:39;;;;;;;3.23;1.30;;;11.40;99.90;;;;;;5034017;28;20462;-72
2022/09/20 02:38:19;;;;;;;1.30;1.20;;;11.40;99.90;;;;;;5042532;28;20974;-71
2022/09/20 02:40:59;;;;;;;1.70;1.40;;;11.40;99.90;;;;;;5036824;28;20478;-70
2022/09/20 02:43:46;;;;;;;3.60;1.67;;;11.40;99.90;;;;;;5044308;28;20854;-71
2022/09/20 02:46:30;;;;;;;1.50;1.40;;;11.30;99.90;;;;;;5037091;28;20558;-70
2022/09/20 02:49:15;;;;;;;1.97;1.23;;;11.30;99.90;;;;;;5044531;28;20504;-71
2022/09/20 02:52:13;;;;;;;2.67;1.20;;;11.40;99.90;;;;;;5024505;28;21039;-70
2022/09/20 02:55:06;;;;;;;1.73;1.33;;;11.40;99.90;;;;;;5034282;28;20463;-71
2022/09/20 02:58:09;;;;;;;2.90;1.57;;;11.30;99.90;;;;;;5035209;28;20466;-72
2022/09/20 03:01:08;;;;;;;3.13;1.17;;;11.40;99.90;;;;;;5045707;28;20466;-72
2022/09/20 03:04:17;;;;;;;2.30;1.10;;;11.30;99.90;;;;;;5044153;28;20885;-71
2022/09/20 03:06:54;;;;;;;1.73;1.30;;;11.30;99.90;;;;;;5038623;28;20450;-70
2022/09/20 03:09:47;;;;;;;4.10;1.70;;;11.20;99.90;;;;;;5043275;28;20490;-71
2022/09/20 03:12:36;;;;;;;1.90;1.47;;;11.20;99.90;;;;;;5017278;28;20458;-71
2022/09/20 03:15:27;;;;;;;4.47;1.27;;;11.20;99.90;;;;;;5044552;28;20963;-70
2022/09/20 03:18:07;;;;;;;2.13;1.13;;;11.10;99.90;;;;;;5055591;28;20450;-72
2022/09/20 03:20:54;;;;;;;2.70;1.20;;;11.10;99.90;;;;;;5037059;28;20504;-72
2022/09/20 03:23:43;;;;;;;2.13;1.30;;;11.10;99.90;;;;;;5037215;28;20462;-71
2022/09/20 03:26:19;;;;;;;2.00;1.20;;;11.10;99.90;;;;;;5037625;28;20455;-71
2022/09/20 03:29:06;;;;;;;3.33;1.30;;;11.10;99.90;;;;;;5042008;28;20458;-71
2022/09/20 03:31:50;;;;;;;3.50;1.57;;;11.00;99.90;;;;;;5041345;28;20458;-71
2022/09/20 03:34:28;;;;;;;4.30;1.20;;;11.00;99.90;;;;;;5041820;28;20459;-72
2022/09/20 03:37:13;;;;;;;1.67;1.30;;;11.00;99.90;;;;;;5038882;28;20524;-70
2022/09/20 03:40:02;;;;;;;4.17;1.70;;;10.90;99.90;;;;;;5037861;28;20466;-71
2022/09/20 03:42:29;;;;;;;3.60;1.73;;;11.00;99.90;;;;;;5055772;28;21052;-72
2022/09/20 03:45:16;;;;;;;4.50;1.20;;;11.00;99.90;;;;;;5040904;28;20445;-71
2022/09/20 03:48:02;;;;;;;4.10;1.30;;;11.10;99.90;;;;;;5041933;28;20450;-71
2022/09/20 03:51:02;;;;;;;6.23;1.63;;;11.10;99.90;;;;;;5055072;28;20455;-72
2022/09/20 03:54:11;;;;;;;4.97;1.20;;;11.10;99.90;;;;;;5035575;28;20454;-71
2022/09/20 03:56:54;;;;;;;1.80;1.40;;;11.10;99.90;;;;;;5036995;28;20447;-70
2022/09/20 03:59:53;;;;;;;4.97;2.20;;;11.10;99.90;;;;;;5037313;28;20451;-71
2022/09/20 04:02:42;;;;;;;3.30;1.60;;;11.10;99.90;;;;;;5038541;28;20459;-71
2022/09/20 04:05:20;;;;;;;1.73;1.60;;;11.10;99.90;;;;;;5039575;28;20461;-71
2022/09/20 04:08:17;;;;;;;1.97;1.63;;;11.10;99.90;;;;;;5033755;28;20473;-72
2022/09/20 04:11:04;;;;;;;1.53;1.40;;;11.00;99.90;;;;;;5033670;28;20446;-71
2022/09/20 04:14:04;;;;;;;2.87;2.00;;;11.10;99.90;;;;;;5040125;28;20473;-71
2022/09/20 04:16:45;;;;;;;3.77;1.60;;;11.00;99.90;;;;;;5033983;28;20481;-71
2022/09/20 04:19:36;;;;;;;6.20;2.03;;;10.90;99.90;;;;;;5041263;28;20573;-70
2022/09/20 04:22:04;;;;;;;1.73;1.33;;;10.80;99.90;;;;;;5040975;28;20942;-70
2022/09/20 04:24:52;;;;;;;3.57;2.20;;;10.70;99.90;;;;;;5038644;28;20471;-71
2022/09/20 04:27:37;;;;;;;5.13;2.07;;;10.80;99.90;;;;;;5045488;28;20465;-71
2022/09/20 04:30:19;;;;;;;1.80;1.70;;;10.80;99.90;;;;;;5037691;28;21159;-70
2022/09/20 04:32:51;;;;;;;2.77;2.10;;;10.80;99.90;;;;;;5032518;28;20455;-71
2022/09/20 04:38:28;;;;;;;2.83;1.73;;;10.90;99.90;;;;;;5038571;28;20474;-70
2022/09/20 04:41:16;;;;;;;7.33;2.03;;;10.90;99.90;;;;;;5037182;28;20451;-71
2022/09/20 04:43:51;;;;;;;3.50;1.70;;;10.80;99.90;;;;;;5046022;28;20482;-70
2022/09/20 04:46:51;;;;;;;1.70;1.60;;;10.80;99.90;;;;;;5037248;28;20454;-70
2022/09/20 04:49:19;;;;;;;4.27;1.70;;;10.80;99.90;;;;;;5030577;28;20507;-70
2022/09/20 04:52:12;;;;;;;1.47;1.37;;;10.70;99.90;;;;;;5019253;28;20469;-70
2022/09/20 04:55:14;;;;;;;4.73;1.97;;;10.80;99.90;;;;;;5042058;28;20466;-70
2022/09/20 04:57:57;;;;;;;4.60;1.70;;;10.80;99.90;;;;;;5038209;28;20481;-70
2022/09/20 05:00:25;;;;;;;2.50;1.83;;;10.80;99.90;;;;;;5039869;28;20462;-71
2022/09/20 05:03:12;;;;;;;4.00;2.60;;;10.70;99.90;;;;;;5022897;28;20462;-70
2022/09/20 05:05:58;;;;;;;2.63;2.23;;;10.70;99.90;;;;;;5049107;28;20466;-71
2022/09/20 05:08:26;;;;;;;2.53;2.33;;;10.70;99.90;;;;;;5036576;28;20474;-70
2022/09/20 05:11:22;;;;;;;2.30;1.90;;;10.70;99.90;;;;;;5056006;28;20454;-71
2022/09/20 05:14:03;;;;;;;4.93;1.80;;;10.70;99.90;;;;;;5036232;28;20454;-71
2022/09/20 05:16:57;;;;;;;5.23;2.73;;;10.70;99.90;;;;;;5040990;28;20451;-71
2022/09/20 05:19:32;;;;;;;4.50;2.03;;;10.70;99.90;;;;;;5055268;28;20971;-71
2022/09/20 05:22:17;;;;;;;4.50;2.97;;;10.70;99.90;;;;;;5036110;28;20546;-69
2022/09/20 05:25:31;;;;;;;5.40;2.83;;;10.70;99.90;;;;;;5034675;28;20549;-70
2022/09/20 05:28:10;;;;;;;5.30;2.57;;;10.70;99.90;;;;;;5025026;28;20458;-70
2022/09/20 05:30:56;;;;;;;5.17;2.70;;;10.70;99.90;;;;;;5019068;28;20462;-70
2022/09/20 05:33:36;;;;;;;3.30;2.47;;;10.80;99.90;;;;;;5044298;28;20458;-70
2022/09/20 05:36:28;;;;;;;7.33;2.37;;;10.80;99.90;;;;;;5032335;28;20858;-70
2022/09/20 05:39:30;;;;;;;4.20;2.80;;;10.80;99.90;;;;;;5046528;28;20478;-70
2022/09/20 05:42:05;;;;;;;5.47;2.80;;;10.80;99.90;;;;;;5030436;28;20905;-71
2022/09/20 05:44:50;;;;;;;5.97;3.00;;;10.80;99.90;;;;;;5051518;28;20858;-70
2022/09/20 05:47:58;;;;;;;9.00;3.23;;;10.80;99.90;;;;;;5017861;28;20455;-70
2022/09/20 05:50:43;;;;;;;5.53;3.50;;;10.80;99.90;;;;;;5034014;28;20885;-70
2022/09/20 05:53:46;;;;;;;8.33;4.17;;;10.80;99.90;;;;;;5029101;28;20594;-70
2022/09/20 05:56:29;;;;;;;8.33;3.83;;;10.80;99.90;;;;;;5035662;28;20462;-70
2022/09/20 05:59:03;;;;;;;6.83;3.97;;;10.80;99.90;;;;;;5032681;28;20454;-70
2022/09/20 06:01:33;;;;;;;4.67;3.03;;;10.80;99.90;;;;;;5039226;28;20476;-70
2022/09/20 06:04:11;;;;;;;4.23;2.13;;;10.80;99.90;;;;;;5036359;28;20459;-70
2022/09/20 06:06:45;;;;;;;6.27;2.77;;;10.80;99.90;;;;;;5036437;28;20504;-70
2022/09/20 06:09:30;;;;;;;4.03;2.60;;;10.80;99.90;;;;;;5028646;28;20954;-70
2022/09/20 06:12:12;;;;;;;4.57;2.17;;;10.80;99.90;;;;;;5032821;28;20462;-70
2022/09/20 06:14:58;;;;;;;3.80;2.73;;;10.80;99.90;;;;;;5040929;28;20450;-71
2022/09/20 06:17:46;;;;;;;2.70;2.23;;;10.80;99.90;;;;;;5043736;28;20454;-71
2022/09/20 06:20:36;;;;;;;8.10;2.77;;;10.80;99.90;;;;;;5052987;28;20459;-70
2022/09/20 06:23:04;;;;;;;2.43;2.20;;;10.80;99.90;;;;;;5040468;28;20474;-70
2022/09/20 06:25:46;;;;;;;4.57;2.10;;;10.90;99.90;;;;;;5028945;28;20471;-70
2022/09/20 06:28:19;;;;;;;7.70;2.53;;;10.90;99.90;;;;;;5039629;28;20455;-70
2022/09/20 06:30:50;;;;;;;6.93;2.33;;;10.90;99.90;;;;;;5044660;28;20462;-71
2022/09/20 06:33:21;;;;;;;3.43;2.20;;;10.90;99.90;;;;;;5040431;28;20521;-71
2022/09/20 06:42:12;;;;;;;3.47;1.90;;;10.90;99.90;;;;;;5038193;28;20532;-71
2022/09/20 06:44:42;;;;;;;7.10;2.43;;;11.00;99.90;;;;;;5036624;28;20842;-70
2022/09/20 06:47:11;;;;;;;4.30;2.13;;;11.00;99.90;;;;;;5035260;28;20462;-70
2022/09/20 06:49:40;;;;;;;3.17;2.47;;;11.00;99.90;;;;;;5037449;28;20524;-71
2022/09/20 06:52:17;;;;;;;5.20;2.57;;;11.00;99.90;;;;;;5029137;28;20459;-71
2022/09/20 06:54:44;;;;;;;6.10;2.63;;;11.00;99.90;;;;;;5036965;28;20536;-70
2022/09/20 06:57:17;;;;;;;4.23;1.97;;;11.00;99.90;;;;;;5035661;28;20980;-70
2022/09/20 06:59:43;;;;;;;6.30;2.73;;;11.00;99.90;;;;;;5035575;28;20462;-71
2022/09/20 07:02:09;;;;;;;4.17;2.57;;;11.10;99.90;;;;;;5035560;28;20542;-70
2022/09/20 07:04:35;;;;;;;7.27;3.80;;;11.10;99.90;;;;;;5040030;28;20471;-70
2022/09/20 07:07:03;;;;;;;4.23;2.20;;;11.10;99.90;;;;;;5042211;28;20501;-71
2022/09/20 07:09:29;;;;;;;3.43;2.27;;;11.10;99.90;;;;;;5031975;28;20469;-70
2022/09/20 07:11:55;;;;;;;4.93;2.03;;;11.10;99.90;;;;;;5041242;28;20458;-70
2022/09/20 07:14:25;;;;;;;2.80;2.20;;;11.20;99.90;;;;;;5041867;28;20254;-70
2022/09/20 07:16:51;;;;;;;3.60;2.20;;;11.20;99.90;;;;;;5036617;28;20540;-70
2022/09/20 07:19:17;;;;;;;3.17;2.20;;;11.20;99.90;;;;;;5035763;28;20526;-71
2022/09/20 07:21:43;;;;;;;3.20;2.13;;;11.20;99.90;;;;;;5038273;28;20450;-70
2022/09/20 07:24:08;;;;;;;3.87;2.20;;;11.20;99.90;;;;;;5040755;28;20703;-70
2022/09/20 07:26:35;;;;;;;3.07;2.80;;;11.30;99.90;;;;;;5035739;28;20231;-71
2022/09/20 07:29:01;;;;;;;3.47;2.17;;;11.30;99.90;;;;;;5031072;28;20602;-71
2022/09/20 07:31:28;;;;;;;8.20;2.60;;;11.30;99.90;;;;;;5037941;28;20470;-71
2022/09/20 07:33:54;;;;;;;7.20;2.73;;;11.30;99.90;;;;;;5035721;28;20219;-70
2022/09/20 07:36:20;;;;;;;6.83;2.50;;;11.30;99.90;;;;;;5035685;28;20831;-70
2022/09/20 07:38:48;;;;;;;4.10;3.20;;;11.40;99.90;;;;;;5023704;28;20462;-71
2022/09/20 07:41:13;;;;;;;3.83;2.60;;;11.40;99.90;;;;;;5037208;28;20234;-71
2022/09/20 07:43:39;;;;;;;5.53;3.20;;;11.40;99.90;;;;;;5031733;28;20467;-70
2022/09/20 07:46:05;;;;;;;4.20;3.17;;;11.50;99.90;;;;;;5035426;28;20220;-71
2022/09/20 07:48:34;;;;;;;16.27;3.23;;;11.50;99.90;;;;;;5042052;28;20687;-71
2022/09/20 07:51:07;;;;;;;4.20;3.80;;;11.50;99.90;;;;;;5036716;28;20461;-71
2022/09/20 07:53:33;;;;;;;3.43;2.83;;;11.60;99.90;;;;;;5038162;28;20463;-72
2022/09/20 07:56:04;;;;;;;7.13;3.00;;;11.70;99.90;;;;;;5038544;28;20461;-70
2022/09/20 07:58:32;;;;;;;2.67;2.40;;;11.70;99.90;;;;;;5035112;28;20463;-70
2022/09/20 08:01:04;;;;;;;3.50;2.57;;;11.80;99.90;;;;;;5055171;28;20458;-70
2022/09/20 08:03:32;;;;;;;3.00;2.10;;;11.90;99.90;;;;;;5050687;28;20471;-71
2022/09/20 08:06:03;;;;;;;3.83;2.13;;;11.90;99.90;;;;;;5037821;28;20459;-71
2022/09/20 08:08:32;;;;;;;2.57;2.37;;;12.00;99.90;;;;;;5042084;28;21074;-70
2022/09/20 08:11:24;;;;;;;4.30;2.20;;;12.00;99.90;;;;;;5052390;28;20463;-71
2022/09/20 08:13:52;;;;;;;3.50;2.57;;;12.10;99.90;;;;;;5030589;28;20880;-70
2022/09/20 08:16:19;;;;;;;3.83;2.33;;;12.10;99.90;;;;;;5037108;28;20520;-71
2022/09/20 08:18:54;;;;;;;5.03;2.10;;;12.30;99.90;;;;;;5024596;28;20525;-71
2022/09/20 08:21:20;;;;;;;2.90;2.50;;;12.30;99.90;;;;;;5035667;28;20469;-70
2022/09/20 08:23:49;;;;;;;4.80;2.97;;;12.40;99.90;;;;;;5044861;28;20466;-71
2022/09/20 08:26:20;;;;;;;3.67;2.83;;;12.40;99.90;;;;;;5038592;28;20259;-70
2022/09/20 08:28:51;;;;;;;3.30;2.07;;;12.50;99.90;;;;;;5040685;28;20470;-71
2022/09/20 08:31:18;;;;;;;4.23;2.60;;;12.50;99.90;;;;;;5033322;28;20912;-70
2022/09/20 08:33:45;;;;;;;4.07;2.47;;;12.50;99.90;;;;;;5036345;28;20462;-71
2022/09/20 08:36:14;;;;;;;6.27;2.00;;;12.60;99.90;;;;;;5051691;28;20475;-69
2022/09/20 08:38:41;;;;;;;4.60;3.23;;;12.60;99.90;;;;;;5040793;28;20509;-71
2022/09/20 08:41:25;;;;;;;3.40;2.37;;;12.70;99.90;;;;;;5041355;28;20470;-70
2022/09/20 08:43:54;;;;;;;9.47;2.63;;;12.70;99.90;;;;;;5055917;28;20471;-70
2022/09/20 08:46:25;;;;;;;6.33;2.83;;;12.80;99.90;;;;;;5042226;28;20833;-70
2022/09/20 08:48:51;;;;;;;6.13;2.77;;;12.80;99.90;;;;;;5040145;28;20461;-70
2022/09/20 08:51:19;;;;;;;8.60;2.70;;;12.90;99.90;;;;;;5032169;28;20529;-70
2022/09/20 08:53:50;;;;;;;3.37;2.87;;;12.90;99.90;;;;;;5037615;28;20515;-71
2022/09/20 08:56:16;;;;;;;7.30;4.90;;;13.00;99.90;;;;;;5038538;28;20508;-71
2022/09/20 08:58:43;;;;;;;8.63;5.37;;;13.00;99.90;;;;;;5043951;28;20498;-70
2022/09/20 09:01:23;;;;;;;4.70;4.30;;;13.00;99.90;;;;;;5036272;28;20857;-71
2022/09/20 09:04:11;;;;;;;5.63;3.93;;;13.00;99.90;;;;;;5038061;28;20505;-70
2022/09/20 09:06:38;;;;;;;4.50;3.43;;;13.00;99.90;;;;;;5036296;28;20520;-70
2022/09/20 09:09:03;;;;;;;12.90;4.00;;;13.10;99.90;;;;;;5030265;28;20506;-71
2022/09/20 09:11:29;;;;;;;3.13;2.67;;;13.20;99.90;;;;;;5037169;28;21136;-70
2022/09/20 09:17:35;;;;;;;2.20;1.97;;;13.20;99.90;;;;;;5047361;28;20260;-70
2022/09/20 09:20:27;;;;;;;4.87;2.83;;;13.30;99.90;;;;;;5026239;28;20470;-71
2022/09/20 09:23:07;;;;;;;5.50;3.20;;;13.30;99.90;;;;;;5021522;28;20234;-71
2022/09/20 09:25:38;;;;;;;2.93;2.23;;;13.30;99.90;;;;;;5023148;28;20466;-70
2022/09/20 09:28:07;;;;;;;4.30;2.33;;;13.40;99.90;;;;;;5037330;28;20474;-70
2022/09/20 09:30:41;;;;;;;3.80;2.13;;;13.40;99.90;;;;;;5038075;28;20482;-71
2022/09/20 09:33:25;;;;;;;7.50;4.87;;;13.40;99.90;;;;;;5036323;28;20462;-71
2022/09/20 09:35:57;;;;;;;8.90;6.40;;;13.50;99.90;;;;;;5036073;28;20485;-71
2022/09/20 09:38:26;;;;;;;6.10;4.67;;;13.40;99.90;;;;;;5053067;28;20487;-71
2022/09/20 09:40:55;;;;;;;6.83;4.87;;;13.40;99.90;;;;;;5023125;28;20458;-70
2022/09/20 09:43:27;;;;;;;7.60;5.60;;;13.40;99.90;;;;;;5035208;28;20521;-71
2022/09/20 09:45:54;;;;;;;45.83;26.03;;;13.50;99.90;;;;;;5034641;28;20458;-71
2022/09/20 09:48:22;;;;;;;64.00;31.70;;;13.50;99.90;;;;;;5037440;28;20461;-71
2022/09/20 09:50:49;;;;;;;101.50;50.80;;;13.60;99.90;;;;;;5040729;28;20477;-70
2022/09/20 09:53:15;;;;;;;79.60;42.70;;;13.70;99.90;;;;;;5034196;28;20483;-71
2022/09/20 09:56:04;;;;;;;48.47;28.13;;;13.80;99.90;;;;;;5017830;28;20454;-70
2022/09/20 09:58:47;;;;;;;19.23;12.20;;;13.80;99.90;;;;;;5039341;28;20466;-71
2022/09/20 10:01:52;;;;;;;10.53;7.60;;;13.80;99.90;;;;;;5037544;28;20958;-70
2022/09/20 10:04:23;;;;;;;9.07;6.10;;;13.90;99.90;;;;;;5023054;28;20467;-69
2022/09/20 10:07:00;;;;;;;9.23;4.70;;;13.90;99.90;;;;;;5034938;28;20458;-71
2022/09/20 10:09:25;;;;;;;3.53;3.23;;;13.90;99.90;;;;;;5047401;28;21004;-70
2022/09/20 10:11:57;;;;;;;4.20;3.17;;;14.00;99.90;;;;;;5037845;28;20455;-71
2022/09/20 10:14:41;;;;;;;6.20;2.60;;;14.00;99.90;;;;;;5040163;28;20228;-70
2022/09/20 10:17:16;;;;;;;5.00;2.67;;;14.10;99.90;;;;;;5038813;28;20462;-70
2022/09/20 10:19:55;;;;;;;6.90;3.37;;;14.10;99.90;;;;;;5050826;28;20454;-71
2022/09/20 10:22:45;;;;;;;5.43;3.00;;;14.30;99.90;;;;;;5051408;28;20546;-71
2022/09/20 10:25:31;;;;;;;10.73;4.00;;;14.40;99.90;;;;;;5039923;28;20454;-71
2022/09/20 10:28:06;;;;;;;5.50;3.03;;;14.50;99.90;;;;;;5039223;28;20446;-70
2022/09/20 10:30:41;;;;;;;3.60;2.30;;;14.60;99.90;;;;;;5038337;28;20466;-71
2022/09/20 10:33:39;;;;;;;3.20;2.40;;;14.50;99.90;;;;;;5033459;28;20439;-71
2022/09/20 10:36:23;;;;;;;4.50;2.47;;;14.50;99.90;;;;;;5042879;28;20875;-71
2022/09/20 10:39:24;;;;;;;4.07;2.60;;;14.40;99.90;;;;;;5032471;28;20444;-70
2022/09/20 10:45:12;;;;;;;4.03;2.87;;;14.40;99.90;;;;;;5041798;28;20462;-71
2022/09/20 10:48:06;;;;;;;3.27;2.73;;;14.50;99.90;;;;;;5036100;28;20465;-71
2022/09/20 10:51:27;;;;;;;2.87;2.03;;;14.50;99.90;;;;;;5037788;28;20470;-71
2022/09/20 10:54:09;;;;;;;5.20;4.20;;;14.50;99.90;;;;;;5000506;28;20438;-71
2022/09/20 10:56:49;;;;;;;4.90;3.93;;;14.60;99.90;;;;;;5030698;28;20486;-71
2022/09/20 10:59:27;;;;;;;13.60;9.33;;;14.70;99.90;;;;;;5040975;28;20458;-71
2022/09/20 11:02:11;;;;;;;14.23;9.60;;;14.80;99.90;;;;;;5037179;28;20591;-71
2022/09/20 11:05:24;;;;;;;18.80;10.90;;;14.90;99.90;;;;;;5032641;28;20851;-70
2022/09/20 11:08:06;;;;;;;7.90;5.50;;;15.00;99.90;;;;;;5033636;28;21022;-71
2022/09/20 11:11:16;;;;;;;8.77;4.60;;;14.90;99.90;;;;;;5037618;28;20543;-70
2022/09/20 11:13:44;;;;;;;6.20;4.33;;;15.10;99.90;;;;;;5035239;28;20486;-70
2022/09/20 11:16:18;;;;;;;7.70;3.47;;;15.30;99.90;;;;;;5037003;28;20460;-70
2022/09/20 11:18:52;;;;;;;7.80;4.10;;;15.40;99.90;;;;;;5037211;28;20820;-70
2022/09/20 11:21:29;;;;;;;4.00;2.47;;;15.60;99.90;;;;;;5051317;28;20463;-70
2022/09/20 11:24:14;;;;;;;3.07;2.17;;;15.70;99.90;;;;;;5032790;28;20538;-71
2022/09/20 11:26:51;;;;;;;2.30;2.10;;;15.80;99.90;;;;;;5044788;28;20455;-71
2022/09/20 11:29:32;;;;;;;1.83;1.73;;;15.70;99.90;;;;;;5043427;28;20992;-70
2022/09/20 11:32:13;;;;;;;2.17;1.97;;;15.60;99.90;;;;;;5030822;28;20895;-69
2022/09/20 11:35:10;;;;;;;5.23;4.00;;;15.60;99.90;;;;;;5039982;28;20474;-71
2022/09/20 11:37:42;;;;;;;5.90;3.40;;;15.50;99.90;;;;;;5048547;28;20453;-70
2022/09/20 11:40:21;;;;;;;4.70;2.87;;;15.50;99.90;;;;;;5047251;28;20508;-70
2022/09/20 11:42:48;;;;;;;2.23;1.90;;;15.50;99.90;;;;;;5042459;28;20459;-70
2022/09/20 11:45:14;;;;;;;2.63;2.10;;;15.40;99.90;;;;;;5036609;28;20480;-70
2022/09/20 11:47:50;;;;;;;3.00;2.20;;;15.30;99.90;;;;;;5046866;28;20450;-71
2022/09/20 11:50:48;;;;;;;3.53;2.00;;;15.20;99.90;;;;;;5042688;28;20215;-70
2022/09/20 11:53:52;;;;;;;2.60;2.40;;;15.00;99.90;;;;;;5043910;28;20979;-70
2022/09/20 11:56:26;;;;;;;4.30;1.90;;;14.80;99.90;;;;;;5028495;28;20453;-70
2022/09/20 11:58:55;;;;;;;2.93;2.47;;;14.70;99.90;;;;;;5042657;28;20465;-71
2022/09/20 12:01:33;;;;;;;2.47;2.27;;;14.70;99.90;;;;;;5042059;28;20496;-70
2022/09/20 12:04:05;;;;;;;3.40;2.60;;;14.80;99.90;;;;;;5042854;28;20494;-70
2022/09/20 12:06:34;;;;;;;2.37;2.17;;;14.90;99.90;;;;;;5037516;28;20482;-70
2022/09/20 12:09:20;;;;;;;3.37;2.20;;;14.90;99.90;;;;;;5050925;28;21030;-70
2022/09/20 12:11:46;;;;;;;2.40;2.20;;;15.00;99.90;;;;;;5045802;28;20484;-70
2022/09/20 12:14:28;;;;;;;256.97;108.70;;;15.10;99.90;;;;;;5040746;28;20451;-70
2022/09/20 12:16:55;;;;;;;178.67;83.70;;;15.10;99.90;;;;;;5030692;28;20220;-70
2022/09/20 12:19:33;;;;;;;64.80;32.63;;;15.10;99.90;;;;;;5040873;28;20443;-71
2022/09/20 12:21:58;;;;;;;62.47;33.20;;;15.10;99.90;;;;;;5043126;28;20480;-70
2022/09/20 12:24:36;;;;;;;92.73;41.97;;;15.10;99.90;;;;;;5040953;28;20570;-69
2022/09/20 12:27:42;;;;;;;98.47;43.40;;;15.00;99.90;;;;;;5033607;28;20684;-70
2022/09/20 12:30:20;;;;;;;129.47;50.43;;;15.10;99.90;;;;;;5027777;28;20473;-71
2022/09/20 12:32:49;;;;;;;84.20;36.43;;;15.10;99.90;;;;;;5034901;28;20466;-71
2022/09/20 12:35:43;;;;;;;40.40;18.03;;;15.10;99.90;;;;;;5052921;28;20844;-71
2022/09/20 12:38:20;;;;;;;22.13;9.63;;;15.10;99.90;;;;;;5036219;28;20493;-69
2022/09/20 12:41:06;;;;;;;15.17;8.23;;;15.10;99.90;;;;;;5032464;28;20543;-71
2022/09/20 12:43:34;;;;;;;11.73;5.80;;;15.10;99.90;;;;;;5046810;28;20513;-70
2022/09/20 12:46:01;;;;;;;6.90;3.70;;;15.10;99.90;;;;;;5045951;28;20462;-70
2022/09/20 12:48:33;;;;;;;5.20;2.37;;;15.00;99.90;;;;;;5034159;28;20472;-70
2022/09/20 12:54:06;;;;;;;4.60;2.33;;;14.90;99.90;;;;;;5025417;28;20540;-71
2022/09/20 12:56:38;;;;;;;2.67;1.90;;;14.70;99.90;;;;;;5031702;28;21007;-70
2022/09/20 12:59:19;;;;;;;2.20;1.87;;;14.80;99.90;;;;;;5034450;28;20473;-69
2022/09/20 13:01:45;;;;;;;3.77;2.00;;;14.70;99.90;;;;;;5033152;28;20470;-69
2022/09/20 13:04:50;;;;;;;3.03;2.30;;;14.70;99.90;;;;;;5040650;28;20466;-70
2022/09/20 13:07:42;;;;;;;2.50;1.63;;;14.70;99.90;;;;;;5035048;28;20231;-70
2022/09/20 13:10:25;;;;;;;3.03;2.27;;;14.80;99.90;;;;;;5022658;28;21073;-70
2022/09/20 13:12:56;;;;;;;8.00;2.23;;;14.80;99.90;;;;;;5032337;28;20463;-70
2022/09/20 13:15:22;;;;;;;8.50;2.80;;;14.80;99.90;;;;;;5040080;28;20970;-70
2022/09/20 13:17:51;;;;;;;2.60;2.17;;;14.90;99.90;;;;;;5035845;28;20538;-70
2022/09/20 13:20:22;;;;;;;4.37;2.40;;;14.90;99.90;;;;;;5031919;28;20263;-70
2022/09/20 13:22:48;;;;;;;2.17;1.80;;;14.90;99.90;;;;;;5036454;28;20454;-70
2022/09/20 13:25:16;;;;;;;7.90;2.43;;;14.90;99.90;;;;;;5036707;28;20533;-69
2022/09/20 13:27:59;;;;;;;3.37;2.30;;;14.90;99.90;;;;;;5042940;28;20462;-71
2022/09/20 13:30:31;;;;;;;3.00;2.00;;;14.90;99.90;;;;;;5032600;28;20478;-71
2022/09/20 13:33:14;;;;;;;2.70;1.80;;;14.90;99.90;;;;;;5039360;28;20457;-70
2022/09/20 13:35:40;;;;;;;3.53;2.20;;;14.80;99.90;;;;;;5035279;28;20439;-72
2022/09/20 13:38:08;;;;;;;2.50;2.23;;;14.80;99.90;;;;;;5050993;28;20991;-70
2022/09/20 13:40:41;;;;;;;1.87;1.67;;;14.80;99.90;;;;;;5041444;28;20446;-70
2022/09/20 13:43:33;;;;;;;1.53;1.43;;;14.90;99.90;;;;;;5033152;28;20571;-71
2022/09/20 13:46:05;;;;;;;2.63;2.03;;;14.90;99.90;;;;;;5042909;28;20451;-69
2022/09/20 13:48:31;;;;;;;2.30;2.10;;;14.90;99.90;;;;;;5057744;28;20553;-71
2022/09/20 13:50:57;;;;;;;2.43;2.23;;;14.90;99.90;;;;;;5029380;28;20604;-70
2022/09/20 13:53:24;;;;;;;2.50;2.27;;;14.90;99.90;;;;;;5027616;28;20274;-70
2022/09/20 13:55:50;;;;;;;7.50;5.10;;;14.90;99.90;;;;;;5034189;28;20222;-70
2022/09/20 13:58:19;;;;;;;11.67;6.53;;;14.90;99.90;;;;;;5033993;28;20817;-69
2022/09/20 14:00:54;;;;;;;5.40;3.80;;;14.90;99.90;;;;;;5036694;28;20227;-71